createdAt,value
2023-01-29T00:01:11.643Z,5.30
2023-01-29T00:03:38.709Z,5.55
2023-01-29T00:06:08.883Z,4.80
2023-01-29T00:08:36.488Z,5.05
2023-01-29T00:11:05.441Z,5.28
2023-01-29T00:13:35.843Z,5.35
2023-01-29T00:16:03.738Z,5.10
2023-01-29T00:18:30.959Z,5.63
2023-01-29T00:20:57.994Z,5.82
2023-01-29T00:23:26.495Z,5.45
2023-01-29T00:25:53.479Z,5.93
2023-01-29T00:28:20.464Z,6.20
2023-01-29T00:30:47.449Z,5.05
2023-01-29T00:33:14.563Z,5.95
2023-01-29T00:35:42.421Z,6.05
2023-01-29T00:38:09.443Z,5.50
2023-01-29T00:40:58.705Z,4.65
2023-01-29T00:43:45.338Z,4.55
2023-01-29T00:46:12.500Z,4.70
2023-01-29T00:48:39.437Z,4.55
2023-01-29T00:51:06.897Z,5.53
2023-01-29T00:53:34.041Z,5.40
2023-01-29T00:56:02.451Z,5.72
2023-01-29T00:58:34.252Z,5.28
2023-01-29T01:01:02.499Z,6.60
2023-01-29T01:03:30.168Z,6.20
2023-01-29T01:06:04.778Z,5.93
2023-01-29T01:08:50.854Z,6.60
2023-01-29T01:11:19.783Z,6.38
2023-01-29T01:13:46.851Z,6.38
2023-01-29T01:16:15.986Z,6.80
2023-01-29T01:18:43.424Z,6.78
2023-01-29T01:21:10.461Z,6.05
2023-01-29T01:23:37.592Z,6.57
2023-01-29T01:26:09.656Z,6.28
2023-01-29T01:28:38.457Z,7.07
2023-01-29T01:31:11.052Z,7.10
2023-01-29T01:33:38.292Z,7.22
2023-01-29T01:36:09.965Z,8.35
2023-01-29T01:38:44.630Z,7.10
2023-01-29T01:41:12.986Z,7.63
2023-01-29T01:43:52.617Z,6.97
2023-01-29T01:46:20.278Z,6.57
2023-01-29T01:48:51.351Z,6.35
2023-01-29T01:51:19.251Z,7.10
2023-01-29T01:53:51.923Z,7.10
2023-01-29T01:56:27.789Z,6.93
2023-01-29T01:58:58.539Z,6.63
2023-01-29T02:01:29.841Z,7.13
2023-01-29T02:04:21.362Z,6.85
2023-01-29T02:07:07.536Z,7.93
2023-01-29T02:09:39.595Z,6.68
2023-01-29T02:12:09.407Z,7.30
2023-01-29T02:14:39.580Z,7.20
2023-01-29T02:17:08.003Z,6.88
2023-01-29T02:19:47.235Z,6.32
2023-01-29T02:22:56.268Z,6.95
2023-01-29T02:26:07.214Z,6.30
2023-01-29T02:28:45.386Z,6.57
2023-01-29T02:31:22.481Z,5.85
2023-01-29T02:34:01.582Z,6.20
2023-01-29T02:36:38.088Z,6.13
2023-01-29T02:39:14.702Z,6.82
2023-01-29T02:41:46.175Z,6.72
2023-01-29T02:44:23.391Z,7.28
2023-01-29T02:47:00.388Z,6.40
2023-01-29T02:49:35.353Z,7.10
2023-01-29T02:52:09.527Z,6.80
2023-01-29T02:54:44.717Z,6.80
2023-01-29T02:59:49.610Z,7.43
2023-01-29T03:02:20.945Z,6.53
2023-01-29T03:04:53.280Z,6.43
2023-01-29T03:07:42.588Z,6.65
2023-01-29T03:10:16.833Z,6.55
2023-01-29T03:12:46.759Z,7.03
2023-01-29T03:15:25.152Z,7.38
2023-01-29T03:18:16.768Z,6.75
2023-01-29T03:20:49.341Z,7.00
2023-01-29T03:23:24.182Z,7.45
2023-01-29T03:26:13.019Z,7.28
2023-01-29T03:29:01.015Z,6.63
2023-01-29T03:31:49.471Z,6.03
2023-01-29T03:34:24.667Z,6.65
2023-01-29T03:36:56.163Z,7.13
2023-01-29T03:39:25.656Z,6.57
2023-01-29T03:42:00.822Z,7.00
2023-01-29T03:44:37.237Z,7.00
2023-01-29T03:49:51.732Z,6.53
2023-01-29T03:52:23.763Z,6.97
2023-01-29T03:55:01.305Z,6.43
2023-01-29T03:57:37.678Z,6.60
2023-01-29T04:00:12.386Z,6.60
2023-01-29T04:03:18.078Z,7.07
2023-01-29T04:05:50.629Z,6.63
2023-01-29T04:08:28.200Z,6.93
2023-01-29T04:10:59.327Z,6.63
2023-01-29T04:13:27.662Z,7.70
2023-01-29T04:15:58.183Z,6.20
2023-01-29T04:18:47.521Z,7.50
2023-01-29T04:21:18.589Z,7.50
2023-01-29T04:23:45.651Z,6.38
2023-01-29T04:26:28.993Z,8.00
2023-01-29T04:29:16.599Z,9.77
2023-01-29T04:31:51.622Z,12.25
2023-01-29T04:34:26.342Z,13.20
2023-01-29T04:37:04.572Z,10.93
2023-01-29T04:39:40.012Z,11.25
2023-01-29T04:44:42.864Z,9.88
2023-01-29T04:47:19.208Z,9.95
2023-01-29T04:49:55.632Z,9.50
2023-01-29T04:52:30.423Z,9.48
2023-01-29T04:55:03.319Z,9.10
2023-01-29T04:57:36.429Z,10.00
2023-01-29T05:00:08.681Z,8.35
2023-01-29T05:02:39.351Z,8.15
2023-01-29T05:05:09.626Z,8.32
2023-01-29T05:07:38.525Z,9.55
2023-01-29T05:10:07.040Z,8.85
2023-01-29T05:12:35.198Z,8.75
2023-01-29T05:15:05.816Z,10.07
2023-01-29T05:17:32.748Z,10.55
2023-01-29T05:19:59.754Z,9.75
2023-01-29T05:22:28.648Z,9.93
2023-01-29T05:24:55.636Z,11.20
2023-01-29T05:27:45.888Z,12.35
2023-01-29T05:30:13.049Z,11.32
2023-01-29T05:32:40.231Z,11.88
2023-01-29T05:35:07.968Z,11.93
2023-01-29T05:37:36.570Z,10.32
2023-01-29T05:40:04.839Z,9.90
2023-01-29T05:42:32.930Z,10.27
2023-01-29T05:44:59.912Z,10.30
2023-01-29T05:47:29.751Z,9.77
2023-01-29T05:49:58.779Z,9.20
2023-01-29T05:52:25.936Z,9.05
2023-01-29T05:54:54.356Z,8.90
2023-01-29T05:57:22.171Z,8.82
2023-01-29T05:59:49.087Z,8.68
2023-01-29T06:02:15.997Z,9.27
2023-01-29T06:04:42.893Z,7.93
2023-01-29T06:07:09.834Z,8.40
2023-01-29T06:09:36.763Z,7.78
2023-01-29T06:12:06.331Z,7.72
2023-01-29T06:14:33.274Z,7.90
2023-01-29T06:17:00.401Z,9.02
2023-01-29T06:19:27.314Z,9.10
2023-01-29T06:21:54.265Z,7.97
2023-01-29T06:24:21.301Z,8.65
2023-01-29T06:26:48.403Z,8.73
2023-01-29T06:29:16.688Z,10.30
2023-01-29T06:31:43.681Z,9.80
2023-01-29T06:34:10.643Z,72.65
2023-01-29T06:36:37.658Z,44.45
2023-01-29T06:39:04.836Z,33.50
2023-01-29T06:41:31.975Z,43.08
2023-01-29T06:43:58.918Z,47.60
2023-01-29T06:46:27.232Z,23.88
2023-01-29T06:48:54.208Z,18.98
2023-01-29T06:51:22.999Z,18.40
2023-01-29T06:53:49.974Z,25.92
2023-01-29T06:56:16.988Z,34.63
2023-01-29T06:58:43.894Z,31.38
2023-01-29T07:01:17.509Z,32.10
2023-01-29T07:03:53.707Z,24.05
2023-01-29T07:06:20.861Z,19.33
2023-01-29T07:08:47.826Z,21.67
2023-01-29T07:11:14.769Z,17.83
2023-01-29T07:13:41.789Z,16.25
2023-01-29T07:16:09.875Z,16.02
2023-01-29T07:18:37.478Z,16.30
2023-01-29T07:21:07.199Z,15.75
2023-01-29T07:23:35.008Z,56.25
2023-01-29T07:26:03.192Z,20.02
2023-01-29T07:28:30.254Z,19.27
2023-01-29T07:30:58.105Z,37.60
2023-01-29T07:33:25.577Z,29.13
2023-01-29T07:35:52.851Z,57.35
2023-01-29T07:38:21.330Z,29.65
2023-01-29T07:40:49.047Z,27.38
2023-01-29T07:43:16.908Z,22.88
2023-01-29T07:45:46.990Z,25.40
2023-01-29T07:48:14.186Z,17.60
2023-01-29T07:50:44.382Z,24.95
2023-01-29T07:53:14.664Z,22.20
2023-01-29T07:55:44.100Z,13.50
2023-01-29T07:58:14.073Z,13.63
2023-01-29T08:00:40.986Z,15.32
2023-01-29T08:03:11.707Z,12.75
2023-01-29T08:05:38.624Z,13.23
2023-01-29T08:08:07.629Z,11.55
2023-01-29T08:10:35.236Z,11.10
2023-01-29T08:13:04.868Z,12.50
2023-01-29T08:15:32.851Z,11.77
2023-01-29T08:18:01.343Z,13.80
2023-01-29T08:20:28.869Z,12.00
2023-01-29T08:22:59.975Z,13.20
2023-01-29T08:25:27.666Z,12.43
2023-01-29T08:27:55.946Z,10.77
2023-01-29T08:30:25.208Z,11.55
2023-01-29T08:32:52.138Z,10.95
2023-01-29T08:35:19.328Z,11.65
2023-01-29T08:37:53.310Z,10.73
2023-01-29T08:40:20.554Z,11.60
2023-01-29T08:42:47.740Z,10.82
2023-01-29T08:45:14.737Z,9.98
2023-01-29T08:47:47.370Z,12.45
2023-01-29T08:50:15.323Z,11.57
2023-01-29T08:52:42.624Z,14.07
2023-01-29T08:55:10.274Z,12.07
2023-01-29T08:57:37.859Z,10.75
2023-01-29T09:00:06.202Z,10.85
2023-01-29T09:02:33.274Z,10.63
2023-01-29T09:05:01.703Z,10.35
2023-01-29T09:07:29.700Z,11.85
2023-01-29T09:09:56.696Z,9.88
2023-01-29T09:12:23.809Z,9.90
2023-01-29T09:14:50.759Z,9.85
2023-01-29T09:17:17.681Z,10.75
2023-01-29T09:19:44.662Z,9.05
2023-01-29T09:22:13.027Z,8.25
2023-01-29T09:24:39.934Z,7.35
2023-01-29T09:27:07.003Z,7.93
2023-01-29T09:29:35.863Z,10.27
2023-01-29T09:32:04.386Z,9.27
2023-01-29T09:34:31.301Z,10.40
2023-01-29T09:36:58.747Z,9.98
2023-01-29T09:39:27.091Z,11.95
2023-01-29T09:42:00.629Z,15.05
2023-01-29T09:44:39.564Z,34.08
2023-01-29T09:47:13.593Z,11.88
2023-01-29T09:49:43.570Z,10.48
2023-01-29T09:52:17.396Z,9.45
2023-01-29T09:54:52.441Z,10.18
2023-01-29T09:57:23.915Z,9.40
2023-01-29T09:59:50.985Z,10.07
2023-01-29T10:02:38.841Z,11.13
2023-01-29T10:05:22.771Z,9.48
2023-01-29T10:08:22.012Z,9.75
2023-01-29T10:10:52.306Z,9.25
2023-01-29T10:13:29.588Z,9.07
2023-01-29T10:16:21.421Z,10.85
2023-01-29T10:19:01.159Z,9.90
2023-01-29T10:21:52.664Z,10.05
2023-01-29T10:24:31.118Z,10.02
2023-01-29T10:27:00.894Z,10.57
2023-01-29T10:29:30.016Z,10.30
2023-01-29T10:32:04.821Z,10.70
2023-01-29T10:34:35.605Z,11.68
2023-01-29T10:37:14.563Z,12.25
2023-01-29T10:39:41.586Z,11.48
2023-01-29T10:42:20.058Z,11.68
2023-01-29T10:44:59.889Z,10.80
2023-01-29T10:47:52.866Z,13.13
2023-01-29T10:50:33.392Z,28.73
2023-01-29T10:53:20.119Z,11.60
2023-01-29T10:55:57.775Z,10.57
2023-01-29T10:58:32.529Z,14.27
2023-01-29T11:00:59.528Z,10.45
2023-01-29T11:03:29.151Z,13.07
2023-01-29T11:06:05.579Z,11.68
2023-01-29T11:11:09.257Z,10.18
2023-01-29T11:13:43.009Z,9.57
2023-01-29T11:16:10.183Z,9.77
2023-01-29T11:18:57.920Z,9.57
2023-01-29T11:21:26.487Z,8.85
2023-01-29T11:24:07.399Z,9.65
2023-01-29T11:26:37.758Z,9.07
2023-01-29T11:29:26.289Z,8.40
2023-01-29T11:31:53.764Z,8.25
2023-01-29T11:34:22.715Z,7.90
2023-01-29T11:36:57.359Z,9.43
2023-01-29T11:39:25.957Z,8.60
2023-01-29T11:41:56.780Z,10.38
2023-01-29T11:44:37.092Z,12.00
2023-01-29T11:47:19.191Z,11.07
2023-01-29T11:49:48.203Z,25.13
2023-01-29T11:52:18.896Z,11.25
2023-01-29T11:54:49.930Z,11.98
2023-01-29T11:57:27.274Z,13.02
2023-01-29T11:59:59.599Z,12.70
2023-01-29T12:02:34.237Z,7.88
2023-01-29T12:05:05.842Z,10.15
2023-01-29T12:07:34.085Z,13.18
2023-01-29T12:10:01.246Z,10.88
2023-01-29T12:12:41.759Z,9.88
2023-01-29T12:15:27.767Z,9.13
2023-01-29T12:18:04.000Z,8.48
2023-01-29T12:20:38.740Z,7.45
2023-01-29T12:23:20.142Z,6.85
2023-01-29T12:25:55.180Z,7.28
2023-01-29T12:28:31.871Z,18.17
2023-01-29T12:31:12.657Z,19.73
2023-01-29T12:33:46.587Z,8.20
2023-01-29T12:36:21.211Z,7.30
2023-01-29T12:38:48.186Z,6.43
2023-01-29T12:41:28.505Z,7.35
2023-01-29T12:43:57.866Z,7.53
2023-01-29T12:46:29.362Z,7.35
2023-01-29T12:49:02.222Z,6.85
2023-01-29T12:51:36.036Z,6.22
2023-01-29T12:54:07.004Z,6.72
2023-01-29T12:56:38.242Z,9.57
2023-01-29T12:59:16.922Z,7.38
2023-01-29T13:01:50.210Z,6.05
2023-01-29T13:04:25.216Z,8.52
2023-01-29T13:06:59.221Z,12.25
2023-01-29T13:09:28.807Z,6.82
2023-01-29T13:11:59.306Z,8.63
2023-01-29T13:14:33.122Z,6.22
2023-01-29T13:17:09.898Z,6.43
2023-01-29T13:19:40.162Z,7.20
2023-01-29T13:22:16.124Z,8.38
2023-01-29T13:24:47.879Z,9.00
2023-01-29T13:27:23.724Z,7.78
2023-01-29T13:29:51.507Z,7.88
2023-01-29T13:32:29.339Z,22.90
2023-01-29T13:34:59.279Z,30.30
2023-01-29T13:37:31.983Z,8.70
2023-01-29T13:40:01.049Z,8.35
2023-01-29T13:42:38.936Z,8.57
2023-01-29T13:45:08.166Z,6.85
2023-01-29T13:47:39.522Z,6.40
2023-01-29T13:50:10.565Z,10.23
2023-01-29T13:52:42.972Z,10.80
2023-01-29T13:55:26.115Z,9.50
2023-01-29T13:57:56.157Z,10.70
2023-01-29T14:00:57.172Z,9.25
2023-01-29T14:04:03.224Z,7.70
2023-01-29T14:06:43.829Z,6.60
2023-01-29T14:09:47.247Z,6.03
2023-01-29T14:12:42.810Z,6.05
2023-01-29T14:15:32.119Z,5.75
2023-01-29T14:18:21.145Z,5.90
2023-01-29T14:20:57.053Z,5.55
2023-01-29T14:23:41.783Z,6.13
2023-01-29T14:26:29.372Z,6.30
2023-01-29T14:29:03.546Z,5.72
2023-01-29T14:31:37.395Z,6.53
2023-01-29T14:34:08.419Z,6.18
2023-01-29T14:36:41.933Z,6.50
2023-01-29T14:39:21.508Z,6.47
2023-01-29T14:41:50.778Z,6.85
2023-01-29T14:45:08.315Z,6.57
2023-01-29T14:47:55.479Z,7.13
2023-01-29T14:50:54.980Z,7.35
2023-01-29T14:53:31.743Z,6.93
2023-01-29T14:56:04.374Z,7.22
2023-01-29T14:58:38.402Z,6.85
2023-01-29T15:01:15.729Z,7.43
2023-01-29T15:03:46.156Z,7.05
2023-01-29T15:06:19.146Z,6.90
2023-01-29T15:08:53.516Z,7.85
2023-01-29T15:11:36.537Z,6.55
2023-01-29T15:14:14.389Z,7.68
2023-01-29T15:16:52.129Z,6.47
2023-01-29T15:19:25.039Z,7.28
2023-01-29T15:22:11.166Z,6.75
2023-01-29T15:24:41.325Z,7.20
2023-01-29T15:27:14.747Z,6.78
2023-01-29T15:29:43.427Z,7.25
2023-01-29T15:32:17.161Z,7.00
2023-01-29T15:34:44.497Z,6.78
2023-01-29T15:37:25.782Z,7.35
2023-01-29T15:39:54.234Z,8.00
2023-01-29T15:42:25.839Z,7.38
2023-01-29T15:44:56.788Z,7.40
2023-01-29T15:47:28.566Z,7.72
2023-01-29T15:49:57.370Z,8.05
2023-01-29T15:52:28.158Z,6.93
2023-01-29T15:55:01.484Z,7.43
2023-01-29T15:57:35.360Z,7.65
2023-01-29T16:00:04.561Z,8.05
2023-01-29T16:05:10.703Z,7.50
2023-01-29T16:07:38.134Z,7.90
2023-01-29T16:10:07.907Z,43.17
2023-01-29T16:12:35.531Z,49.97
2023-01-29T16:15:05.287Z,36.80
2023-01-29T16:17:36.345Z,26.92
2023-01-29T16:20:06.097Z,13.38
2023-01-29T16:22:34.535Z,8.23
2023-01-29T16:25:07.859Z,8.38
2023-01-29T16:27:35.339Z,8.93
2023-01-29T16:30:04.051Z,8.23
2023-01-29T16:32:31.460Z,7.25
2023-01-29T16:35:00.045Z,7.95
2023-01-29T16:37:30.357Z,7.45
2023-01-29T16:39:59.793Z,7.53
2023-01-29T16:42:29.695Z,8.05
2023-01-29T16:44:59.237Z,7.78
2023-01-29T16:47:34.554Z,7.68
2023-01-29T16:52:33.863Z,7.80
2023-01-29T16:55:15.988Z,9.48
2023-01-29T16:57:49.947Z,9.98
2023-01-29T17:00:22.134Z,11.63
2023-01-29T17:02:51.866Z,11.50
2023-01-29T17:05:22.928Z,11.77
2023-01-29T17:07:50.457Z,13.15
2023-01-29T17:10:19.725Z,14.13
2023-01-29T17:12:56.067Z,14.02
2023-01-29T17:15:43.301Z,13.55
2023-01-29T17:18:16.027Z,13.63
2023-01-29T17:20:42.923Z,16.27
2023-01-29T17:23:09.910Z,14.18
2023-01-29T17:25:37.017Z,16.10
2023-01-29T17:28:05.947Z,12.80
2023-01-29T17:30:37.144Z,11.10
2023-01-29T17:33:12.681Z,9.57
2023-01-29T17:35:39.835Z,8.70
2023-01-29T17:38:24.140Z,10.57
2023-01-29T17:40:56.010Z,12.98
2023-01-29T17:43:24.327Z,16.45
2023-01-29T17:45:51.344Z,25.80
2023-01-29T17:48:23.004Z,35.78
2023-01-29T17:50:53.410Z,37.67
2023-01-29T17:53:21.794Z,29.20
2023-01-29T17:55:49.024Z,16.20
2023-01-29T17:58:18.330Z,16.05
2023-01-29T18:00:47.101Z,16.10
2023-01-29T18:03:15.448Z,17.60
2023-01-29T18:05:43.698Z,16.13
2023-01-29T18:08:16.818Z,13.77
2023-01-29T18:10:44.178Z,13.30
2023-01-29T18:13:11.283Z,14.05
2023-01-29T18:15:38.551Z,17.15
2023-01-29T18:18:10.326Z,19.60
2023-01-29T18:20:38.512Z,22.88
2023-01-29T18:23:06.674Z,18.10
2023-01-29T18:25:34.219Z,17.48
2023-01-29T18:28:01.373Z,19.88
2023-01-29T18:30:28.783Z,20.50
2023-01-29T18:32:55.796Z,23.48
2023-01-29T18:35:25.072Z,22.00
2023-01-29T18:37:52.128Z,20.88
2023-01-29T18:40:19.570Z,19.52
2023-01-29T18:42:46.917Z,25.10
2023-01-29T18:45:15.773Z,24.60
2023-01-29T18:47:43.137Z,22.52
2023-01-29T18:50:11.729Z,33.92
2023-01-29T18:52:40.877Z,23.52
2023-01-29T18:55:09.872Z,24.25
2023-01-29T18:58:29.544Z,30.38
2023-01-29T19:00:26.194Z,26.13
2023-01-29T19:02:53.264Z,26.45
2023-01-29T19:05:22.926Z,26.95
2023-01-29T19:07:52.352Z,25.25
2023-01-29T19:10:19.466Z,30.92
2023-01-29T19:12:46.546Z,25.70
2023-01-29T19:15:13.531Z,24.95
2023-01-29T19:17:40.492Z,28.92
2023-01-29T19:20:09.656Z,27.70
2023-01-29T19:22:36.740Z,24.95
2023-01-29T19:25:06.234Z,25.23
2023-01-29T19:27:33.320Z,23.30
2023-01-29T19:30:00.532Z,21.38
2023-01-29T19:32:29.195Z,20.52
2023-01-29T19:34:57.770Z,22.92
2023-01-29T19:37:25.330Z,23.10
2023-01-29T19:39:53.846Z,26.63
2023-01-29T19:42:22.299Z,25.67
2023-01-29T19:44:51.371Z,23.75
2023-01-29T19:47:18.405Z,25.77
2023-01-29T19:49:45.529Z,26.65
2023-01-29T19:52:51.191Z,32.13
2023-01-29T19:55:20.113Z,20.80
2023-01-29T19:57:49.394Z,19.33
2023-01-29T20:00:18.208Z,23.15
2023-01-29T20:02:45.449Z,21.95
2023-01-29T20:05:14.356Z,20.92
2023-01-29T20:07:43.385Z,17.95
2023-01-29T20:10:17.410Z,20.52
2023-01-29T20:12:45.789Z,25.08
2023-01-29T20:15:15.358Z,20.33
2023-01-29T20:17:43.866Z,19.83
2023-01-29T20:20:11.779Z,24.40
2023-01-29T20:22:38.780Z,24.60
2023-01-29T20:25:07.022Z,23.77
2023-01-29T20:27:34.382Z,16.75
2023-01-29T20:30:01.365Z,16.33
2023-01-29T20:32:30.332Z,16.63
2023-01-29T20:34:57.610Z,16.77
2023-01-29T20:37:24.651Z,17.50
2023-01-29T20:39:51.669Z,16.58
2023-01-29T20:42:20.007Z,16.33
2023-01-29T20:44:47.442Z,16.83
2023-01-29T20:47:14.531Z,14.95
2023-01-29T20:49:42.841Z,16.20
2023-01-29T20:52:10.808Z,15.32
2023-01-29T20:54:37.882Z,15.88
2023-01-29T20:57:05.148Z,15.60
2023-01-29T20:59:32.179Z,15.48
2023-01-29T21:01:59.301Z,16.23
2023-01-29T21:04:27.233Z,16.52
2023-01-29T21:06:55.516Z,15.60
2023-01-29T21:09:22.670Z,15.50
2023-01-29T21:11:49.668Z,14.60
2023-01-29T21:14:16.673Z,15.07
2023-01-29T21:16:43.805Z,14.63
2023-01-29T21:19:15.840Z,14.50
2023-01-29T21:21:42.914Z,15.55
2023-01-29T21:24:12.993Z,14.05
2023-01-29T21:26:40.151Z,15.80
2023-01-29T21:29:07.110Z,15.77
2023-01-29T21:31:34.070Z,17.77
2023-01-29T21:34:01.760Z,18.10
2023-01-29T21:36:28.659Z,18.98
2023-01-29T21:38:55.914Z,18.73
2023-01-29T21:41:44.295Z,18.48
2023-01-29T21:44:11.534Z,18.67
2023-01-29T21:46:38.534Z,16.88
2023-01-29T21:49:05.715Z,18.38
2023-01-29T21:51:32.683Z,19.30
2023-01-29T21:53:59.639Z,19.17
2023-01-29T21:56:27.896Z,18.17
2023-01-29T21:58:55.252Z,22.38
2023-01-29T22:01:36.518Z,21.23
2023-01-29T22:04:04.197Z,21.42
2023-01-29T22:06:31.141Z,20.95
2023-01-29T22:08:58.164Z,21.02
2023-01-29T22:11:25.178Z,25.20
2023-01-29T22:13:53.577Z,22.98
2023-01-29T22:16:20.529Z,18.98
2023-01-29T22:18:49.457Z,19.13
2023-01-29T22:21:16.336Z,19.60
2023-01-29T22:23:43.214Z,19.70
2023-01-29T22:26:11.040Z,18.40
2023-01-29T22:28:38.136Z,20.15
2023-01-29T22:31:06.576Z,19.50
2023-01-29T22:33:33.597Z,17.92
2023-01-29T22:36:01.115Z,19.63
2023-01-29T22:38:28.356Z,19.23
2023-01-29T22:40:56.901Z,18.73
2023-01-29T22:43:25.993Z,16.40
2023-01-29T22:45:53.046Z,15.35
2023-01-29T22:48:22.650Z,14.98
2023-01-29T22:51:09.322Z,15.15
2023-01-29T22:53:37.730Z,14.63
2023-01-29T22:56:06.043Z,14.82
2023-01-29T22:58:33.682Z,15.85
2023-01-29T23:01:00.685Z,15.73
2023-01-29T23:03:29.030Z,15.68
2023-01-29T23:05:56.080Z,16.08
2023-01-29T23:08:23.122Z,15.63
2023-01-29T23:10:50.099Z,15.13
2023-01-29T23:13:17.077Z,14.15
2023-01-29T23:15:44.054Z,15.45
2023-01-29T23:18:11.011Z,15.57
2023-01-29T23:20:39.306Z,14.75
2023-01-29T23:23:06.271Z,14.70
2023-01-29T23:25:51.923Z,15.43
2023-01-29T23:30:45.782Z,13.75
2023-01-29T23:33:12.967Z,15.15
2023-01-29T23:35:41.738Z,16.13
2023-01-29T23:38:08.698Z,15.95
2023-01-29T23:40:35.672Z,14.45
2023-01-29T23:43:02.624Z,15.75
2023-01-29T23:45:29.567Z,14.32
2023-01-29T23:47:56.582Z,14.75
2023-01-29T23:50:23.539Z,15.00
2023-01-29T23:52:51.836Z,14.60
2023-01-29T23:55:18.778Z,14.00
2023-01-29T23:57:45.736Z,15.32
